createdAt,value
2018-08-23T00:04:20.759Z,100893.45
2018-08-23T00:12:41.802Z,100883.81
2018-08-23T00:21:02.857Z,100878.53
2018-08-23T00:29:23.878Z,100871.92
2018-08-23T00:37:44.950Z,100857.55
2018-08-23T00:46:05.999Z,100856.96
2018-08-23T00:54:27.011Z,100859.89
2018-08-23T01:02:48.054Z,100850.08
2018-08-23T01:11:09.087Z,100842.39
2018-08-23T01:19:31.211Z,100837.97
2018-08-23T01:27:52.232Z,100840.99
2018-08-23T01:36:13.255Z,100834.77
2018-08-23T01:44:34.319Z,100820.10
2018-08-23T01:52:55.326Z,100825.94
2018-08-23T02:01:17.453Z,100821.91
2018-08-23T02:09:38.586Z,100820.53
2018-08-23T02:17:59.870Z,100811.91
2018-08-23T02:26:20.897Z,100807.86
2018-08-23T02:34:41.930Z,100802.30
2018-08-23T02:43:03.078Z,100790.59
2018-08-23T02:51:26.148Z,100783.53
2018-08-23T02:59:47.443Z,100785.57
2018-08-23T03:08:08.482Z,100773.47
2018-08-23T03:16:29.493Z,100758.63
2018-08-23T03:24:50.534Z,100757.30
2018-08-23T03:33:11.541Z,100747.72
2018-08-23T03:41:32.543Z,100760.80
2018-08-23T03:55:08.668Z,100767.48
2018-08-23T04:03:29.667Z,100752.43
2018-08-23T04:11:50.763Z,100748.55
2018-08-23T04:20:11.884Z,100752.64
2018-08-23T04:28:33.990Z,100752.30
2018-08-23T04:36:55.031Z,100748.89
2018-08-23T04:45:16.300Z,100742.94
2018-08-23T04:53:37.652Z,100736.77
2018-08-23T05:01:58.763Z,100738.84
2018-08-23T05:10:19.801Z,100728.70
2018-08-23T05:18:40.979Z,100733.73
2018-08-23T05:27:02.106Z,100729.25
2018-08-23T05:40:21.087Z,100713.35
2018-08-23T05:48:42.107Z,100713.18
2018-08-23T05:57:03.226Z,100715.59
2018-08-23T06:05:24.251Z,100712.52
2018-08-23T06:13:45.274Z,100718.68
2018-08-23T06:22:06.297Z,100719.04
2018-08-23T06:30:28.427Z,100715.92
2018-08-23T06:38:51.586Z,100717.63
2018-08-23T06:47:12.667Z,100718.63
2018-08-23T06:55:33.694Z,100720.61
2018-08-23T07:03:54.692Z,100712.64
2018-08-23T07:12:15.828Z,100704.59
2018-08-23T07:20:37.028Z,100696.04
2018-08-23T07:28:58.063Z,100707.40
2018-08-23T07:37:19.422Z,100696.25
2018-08-23T07:45:40.435Z,100700.64
2018-08-23T07:54:01.482Z,100700.69
2018-08-23T08:02:22.504Z,100691.95
2018-08-23T08:10:43.635Z,100699.30
2018-08-23T08:19:04.671Z,100702.30
2018-08-23T08:27:25.716Z,100695.61
2018-08-23T08:35:46.759Z,100688.07
2018-08-23T08:44:07.787Z,100691.37
2018-08-23T08:52:28.800Z,100688.05
2018-08-23T09:00:51.874Z,100683.14
2018-08-23T09:09:12.997Z,100668.95
2018-08-23T09:17:34.062Z,100655.65
2018-08-23T09:25:55.170Z,100652.52
2018-08-23T09:34:16.213Z,100645.59
2018-08-23T09:42:37.275Z,100648.84
2018-08-23T09:50:58.346Z,100631.71
2018-08-23T09:59:20.471Z,100636.02
2018-08-23T10:07:41.499Z,100625.73
2018-08-23T10:16:02.517Z,100621.09
2018-08-23T10:24:23.536Z,100608.84
2018-08-23T10:33:09.272Z,100599.31
2018-08-23T10:41:30.291Z,100608.44
2018-08-23T10:49:51.314Z,100601.62
2018-08-23T10:58:12.355Z,100605.49
2018-08-23T11:06:35.496Z,100592.38
2018-08-23T11:14:56.508Z,100584.59
2018-08-23T11:23:17.551Z,100585.73
2018-08-23T11:31:38.602Z,100570.73
2018-08-23T11:39:59.608Z,100564.21
2018-08-23T11:48:20.635Z,100556.52
2018-08-23T11:56:42.790Z,100555.28
2018-08-23T12:05:03.814Z,100549.55
2018-08-23T12:13:24.838Z,100542.37
2018-08-23T12:21:46.183Z,100539.54
2018-08-23T12:30:07.255Z,100537.80
2018-08-23T12:38:28.299Z,100535.61
2018-08-23T12:46:49.338Z,100529.85
2018-08-23T13:03:29.676Z,100513.69
2018-08-23T13:11:50.678Z,100506.78
2018-08-23T13:20:11.692Z,100492.38
2018-08-23T13:28:32.689Z,100489.08
2018-08-23T13:36:53.787Z,100482.59
2018-08-23T13:45:14.795Z,100477.34
2018-08-23T13:53:35.882Z,100474.92
2018-08-23T14:01:56.896Z,100470.64
2018-08-23T14:10:17.951Z,100457.08
2018-08-23T14:18:39.123Z,100448.51
2018-08-23T14:27:00.168Z,100441.03
2018-08-23T14:35:21.192Z,100431.90
2018-08-23T14:43:42.244Z,100417.40
2018-08-23T14:52:03.368Z,100424.67
2018-08-23T15:00:24.514Z,100416.97
2018-08-23T15:08:45.620Z,100410.22
2018-08-23T15:17:06.666Z,100404.90
2018-08-23T15:25:27.667Z,100407.97
2018-08-23T15:33:48.731Z,100399.22
2018-08-23T15:42:09.783Z,100398.54
2018-08-23T15:50:30.785Z,100391.92
2018-08-23T15:58:51.812Z,100387.77
2018-08-23T16:07:12.963Z,100389.51
2018-08-23T16:15:33.987Z,100389.78
2018-08-23T16:23:55.000Z,100379.94
2018-08-23T16:32:16.009Z,100378.52
2018-08-23T16:40:38.110Z,100372.64
2018-08-23T16:48:59.225Z,100369.33
2018-08-23T16:57:20.251Z,100370.86
2018-08-23T17:05:41.286Z,100378.30
2018-08-23T17:14:02.307Z,100374.47
2018-08-23T17:22:24.322Z,100374.38
2018-08-23T17:30:45.410Z,100360.08
2018-08-23T17:39:06.451Z,100367.39
2018-08-23T17:47:27.830Z,100359.39
2018-08-23T17:55:49.008Z,100368.70
2018-08-23T18:04:09.979Z,100379.70
2018-08-23T18:12:31.022Z,100374.22
2018-08-23T18:20:52.069Z,100383.78
2018-08-23T18:29:13.357Z,100387.62
2018-08-23T18:37:35.604Z,100404.88
2018-08-23T18:45:56.578Z,100412.56
2018-08-23T18:54:17.685Z,100422.31
2018-08-23T19:02:39.105Z,100423.77
2018-08-23T19:11:00.160Z,100425.16
2018-08-23T19:19:21.223Z,100426.14
2018-08-23T19:27:42.252Z,100426.72
2018-08-23T19:36:03.282Z,100420.28
2018-08-23T19:44:24.305Z,100409.89
2018-08-23T19:52:45.405Z,100400.85
2018-08-23T20:01:07.473Z,100398.69
2018-08-23T20:09:30.567Z,100396.10
2018-08-23T20:17:51.910Z,100394.81
2018-08-23T20:26:12.936Z,100391.80
2018-08-23T20:34:33.984Z,100394.83
2018-08-23T20:42:55.008Z,100393.09
2018-08-23T20:51:16.035Z,100390.91
2018-08-23T20:59:37.146Z,100389.20
2018-08-23T21:07:58.186Z,100390.49
2018-08-23T21:16:19.512Z,100393.55
2018-08-23T21:24:40.504Z,100389.63
2018-08-23T21:33:01.528Z,100393.97
2018-08-23T21:41:22.541Z,100384.00
2018-08-23T21:49:44.639Z,100388.33
2018-08-23T21:58:05.686Z,100388.75
2018-08-23T22:06:26.711Z,100379.23
2018-08-23T22:14:47.755Z,100373.14
2018-08-23T22:23:08.752Z,100377.48
2018-08-23T22:31:29.863Z,100374.86
2018-08-23T22:39:51.908Z,100367.93
2018-08-23T22:48:12.931Z,100367.06
2018-08-23T22:56:34.304Z,100365.75
2018-08-23T23:04:55.398Z,100339.74
2018-08-23T23:13:16.438Z,100342.78
2018-08-23T23:21:37.582Z,100334.50
2018-08-23T23:29:58.716Z,100338.83
2018-08-23T23:38:19.753Z,100339.72
2018-08-23T23:46:41.084Z,100342.32
2018-08-23T23:55:03.179Z,100347.09
